createdAt,value
2023-02-24T00:02:29.498Z,45.35
2023-02-24T00:05:16.876Z,46.90
2023-02-24T00:08:04.328Z,45.05
2023-02-24T00:10:52.874Z,43.42
2023-02-24T00:13:41.284Z,42.30
2023-02-24T00:16:28.574Z,44.15
2023-02-24T00:19:19.912Z,45.40
2023-02-24T00:22:08.310Z,46.30
2023-02-24T00:25:01.386Z,44.75
2023-02-24T00:27:48.682Z,43.10
2023-02-24T00:30:36.019Z,43.40
2023-02-24T00:33:24.608Z,45.03
2023-02-24T00:36:23.989Z,43.83
2023-02-24T00:39:13.756Z,44.88
2023-02-24T00:42:04.981Z,45.00
2023-02-24T00:44:56.883Z,43.47
2023-02-24T00:47:46.607Z,46.33
2023-02-24T00:50:33.895Z,48.15
2023-02-24T00:53:21.380Z,48.25
2023-02-24T00:56:12.438Z,49.22
2023-02-24T00:59:00.629Z,49.95
2023-02-24T01:01:55.004Z,50.35
2023-02-24T01:04:44.457Z,51.83
2023-02-24T01:07:34.020Z,51.30
2023-02-24T01:10:23.367Z,51.70
2023-02-24T01:13:10.508Z,52.88
2023-02-24T01:16:03.324Z,51.53
2023-02-24T01:18:53.705Z,51.00
2023-02-24T01:21:40.918Z,51.95
2023-02-24T01:24:33.708Z,51.20
2023-02-24T01:30:16.132Z,50.20
2023-02-24T01:33:08.206Z,53.00
2023-02-24T01:35:56.130Z,63.00
2023-02-24T01:38:44.743Z,64.28
2023-02-24T01:41:32.551Z,57.50
2023-02-24T01:44:22.817Z,54.47
2023-02-24T01:47:10.666Z,57.10
2023-02-24T01:49:57.893Z,57.55
2023-02-24T01:52:47.963Z,55.55
2023-02-24T01:55:47.187Z,57.80
2023-02-24T01:58:34.735Z,58.08
2023-02-24T02:01:24.546Z,58.15
2023-02-24T02:04:33.709Z,58.17
2023-02-24T02:07:22.887Z,63.08
2023-02-24T02:10:14.591Z,65.72
2023-02-24T02:13:06.178Z,66.20
2023-02-24T02:16:07.724Z,64.55
2023-02-24T02:19:11.438Z,62.90
2023-02-24T02:22:33.874Z,62.10
2023-02-24T02:25:43.768Z,49.75
2023-02-24T02:28:36.746Z,62.60
2023-02-24T02:31:51.958Z,64.78
2023-02-24T02:34:43.013Z,62.17
2023-02-24T02:38:03.295Z,57.47
2023-02-24T02:41:15.633Z,59.83
2023-02-24T02:44:19.169Z,60.00
2023-02-24T02:47:28.291Z,59.17
2023-02-24T02:50:30.524Z,60.60
2023-02-24T02:53:34.855Z,47.05
2023-02-24T02:56:50.706Z,62.28
2023-02-24T02:59:44.473Z,64.72
2023-02-24T03:02:38.474Z,65.40
2023-02-24T03:05:30.722Z,67.95
2023-02-24T03:08:22.992Z,68.55
2023-02-24T03:11:14.132Z,65.82
2023-02-24T03:14:02.801Z,68.07
2023-02-24T03:16:55.878Z,67.63
2023-02-24T03:19:46.742Z,66.05
2023-02-24T03:22:50.678Z,66.07
2023-02-24T03:25:58.858Z,62.90
2023-02-24T03:29:03.911Z,64.03
2023-02-24T03:31:59.614Z,62.80
2023-02-24T03:35:27.432Z,65.68
2023-02-24T03:38:17.021Z,62.65
2023-02-24T03:41:07.158Z,65.72
2023-02-24T03:43:55.555Z,59.58
2023-02-24T03:46:44.949Z,61.42
2023-02-24T03:49:37.686Z,60.50
2023-02-24T03:55:25.402Z,57.63
2023-02-24T03:58:31.849Z,59.20
2023-02-24T04:01:35.386Z,58.45
2023-02-24T04:04:33.462Z,58.20
2023-02-24T04:07:26.435Z,58.25
2023-02-24T04:10:19.669Z,59.55
2023-02-24T04:13:22.509Z,62.83
2023-02-24T04:16:17.057Z,61.22
2023-02-24T04:19:09.606Z,65.13
2023-02-24T04:21:57.322Z,65.53
2023-02-24T04:24:46.838Z,66.82
2023-02-24T04:27:34.541Z,65.80
2023-02-24T04:30:25.117Z,70.15
2023-02-24T04:33:13.091Z,71.38
2023-02-24T04:36:00.345Z,72.88
2023-02-24T04:38:48.692Z,68.57
2023-02-24T04:41:35.887Z,70.13
2023-02-24T04:44:23.857Z,70.13
2023-02-24T04:47:14.363Z,66.05
2023-02-24T04:50:13.528Z,66.35
2023-02-24T04:53:11.424Z,65.28
2023-02-24T04:56:08.259Z,63.22
2023-02-24T04:58:58.149Z,64.90
2023-02-24T05:01:47.266Z,58.67
2023-02-24T05:04:38.836Z,63.97
2023-02-24T05:07:29.747Z,65.77
2023-02-24T05:10:19.700Z,62.63
2023-02-24T05:13:13.900Z,68.13
2023-02-24T05:16:08.767Z,65.47
2023-02-24T05:19:21.760Z,67.93
2023-02-24T05:22:10.354Z,68.28
2023-02-24T05:24:59.806Z,66.78
2023-02-24T05:27:47.710Z,66.43
2023-02-24T05:30:35.538Z,68.68
2023-02-24T05:33:22.864Z,71.65
2023-02-24T05:36:15.328Z,70.25
2023-02-24T05:39:12.158Z,66.35
2023-02-24T05:42:05.637Z,67.30
2023-02-24T05:44:53.757Z,67.53
2023-02-24T05:47:41.290Z,72.65
2023-02-24T05:50:33.053Z,67.43
2023-02-24T05:53:20.497Z,70.37
2023-02-24T05:56:11.776Z,64.28
2023-02-24T05:59:26.009Z,66.00
2023-02-24T06:02:17.388Z,73.82
2023-02-24T06:05:10.028Z,61.92
2023-02-24T06:08:06.667Z,68.22
2023-02-24T06:10:55.921Z,65.30
2023-02-24T06:13:49.351Z,67.28
2023-02-24T06:16:40.071Z,60.83
2023-02-24T06:19:27.395Z,71.22
2023-02-24T06:22:23.171Z,70.70
2023-02-24T06:25:20.654Z,76.03
2023-02-24T06:28:07.794Z,72.72
2023-02-24T06:30:56.287Z,70.80
2023-02-24T06:33:45.983Z,75.18
2023-02-24T06:37:07.397Z,79.07
2023-02-24T06:40:01.283Z,74.35
2023-02-24T06:42:53.663Z,81.22
2023-02-24T06:45:41.244Z,80.30
2023-02-24T06:48:28.870Z,78.45
2023-02-24T06:51:36.683Z,79.50
2023-02-24T08:05:48.852Z,61.33
2023-02-24T08:08:23.072Z,48.07
2023-02-24T08:14:18.271Z,56.35
2023-02-24T08:17:14.514Z,54.97
2023-02-24T08:20:23.275Z,54.25
2023-02-24T08:23:15.993Z,52.80
2023-02-24T08:35:42.476Z,54.80
2023-02-24T08:46:07.360Z,49.28
2023-02-24T08:52:35.283Z,45.53
2023-02-24T08:55:36.084Z,43.92
2023-02-24T08:58:27.241Z,37.63
2023-02-24T09:02:04.601Z,34.50
2023-02-24T09:04:56.746Z,28.98
2023-02-24T09:07:44.536Z,28.05
2023-02-24T09:10:40.783Z,25.15
2023-02-24T09:17:28.716Z,23.90
2023-02-24T09:23:57.376Z,25.25
2023-02-24T09:26:45.156Z,24.52
2023-02-24T09:29:54.498Z,23.45
2023-02-24T09:37:17.938Z,23.95
2023-02-24T09:39:31.330Z,22.50
2023-02-24T09:46:50.868Z,23.38
2023-02-24T09:49:58.830Z,20.75
2023-02-24T09:53:00.127Z,18.63
2023-02-24T09:56:18.901Z,18.70
2023-02-24T09:59:36.564Z,16.42
2023-02-24T10:02:46.341Z,16.40
2023-02-24T10:09:30.469Z,15.55
2023-02-24T10:12:49.890Z,14.40
2023-02-24T10:15:57.818Z,14.07
2023-02-24T10:19:11.319Z,13.73
2023-02-24T10:22:31.213Z,12.13
2023-02-24T10:25:59.331Z,12.40
2023-02-24T10:29:02.514Z,12.90
2023-02-24T10:32:30.510Z,13.10
2023-02-24T10:35:46.379Z,12.43
2023-02-24T10:38:58.094Z,13.82
2023-02-24T10:42:41.148Z,11.85
2023-02-24T10:46:01.924Z,10.13
2023-02-24T10:49:17.467Z,12.23
2023-02-24T10:52:36.544Z,11.15
2023-02-24T10:55:50.047Z,11.93
2023-02-24T11:03:07.727Z,10.68
2023-02-24T11:06:06.702Z,11.18
2023-02-24T11:09:19.610Z,10.68
2023-02-24T11:13:04.266Z,9.80
2023-02-24T11:16:20.442Z,11.57
2023-02-24T11:19:10.469Z,10.07
2023-02-24T11:22:00.028Z,10.07
2023-02-24T11:24:51.579Z,10.95
2023-02-24T11:27:52.433Z,10.77
2023-02-24T11:30:44.253Z,9.82
2023-02-24T11:34:06.196Z,9.70
2023-02-24T11:36:56.580Z,9.90
2023-02-24T11:40:25.479Z,11.48
2023-02-24T11:43:30.318Z,14.45
2023-02-24T11:46:25.887Z,13.38
2023-02-24T11:49:40.290Z,15.25
2023-02-24T11:52:50.732Z,17.25
2023-02-24T12:03:53.248Z,17.13
2023-02-24T12:07:26.401Z,18.50
2023-02-24T12:10:39.403Z,18.20
2023-02-24T12:16:36.144Z,15.88
2023-02-24T12:19:36.350Z,16.92
2023-02-24T12:22:55.765Z,18.92
2023-02-24T12:49:07.698Z,11.20
2023-02-24T12:52:13.720Z,12.27
2023-02-24T12:55:15.721Z,12.40
2023-02-24T12:59:19.023Z,12.00
2023-02-24T13:02:50.692Z,12.88
2023-02-24T13:06:04.637Z,13.25
2023-02-24T13:09:27.418Z,11.43
2023-02-24T13:12:28.596Z,11.43
2023-02-24T13:15:32.655Z,9.85
2023-02-24T13:18:42.931Z,9.10
2023-02-24T13:22:25.938Z,10.57
2023-02-24T13:29:51.654Z,9.50
2023-02-24T13:33:06.813Z,9.80
2023-02-24T13:36:08.190Z,10.00
2023-02-24T13:39:38.285Z,9.82
2023-02-24T13:42:33.534Z,9.57
2023-02-24T13:45:29.885Z,9.60
2023-02-24T13:48:23.564Z,10.18
2023-02-24T13:51:32.131Z,9.35
2023-02-24T13:54:47.267Z,9.77
2023-02-24T13:57:43.143Z,9.00
2023-02-24T14:01:09.772Z,8.02
2023-02-24T14:04:20.171Z,10.20
2023-02-24T14:07:18.062Z,9.48
2023-02-24T14:10:23.002Z,9.52
2023-02-24T14:13:32.340Z,8.98
2023-02-24T14:16:40.040Z,9.20
2023-02-24T14:19:27.524Z,8.63
2023-02-24T14:22:19.626Z,8.98
2023-02-24T14:25:10.082Z,8.23
2023-02-24T14:27:58.064Z,8.52
2023-02-24T14:30:59.690Z,9.07
2023-02-24T14:33:47.251Z,8.55
2023-02-24T14:36:40.948Z,9.02
2023-02-24T14:43:06.725Z,8.18
2023-02-24T14:45:54.685Z,7.57
2023-02-24T14:48:45.208Z,8.00
2023-02-24T14:51:58.338Z,8.15
2023-02-24T14:55:22.394Z,8.65
2023-02-24T14:58:22.422Z,9.00
2023-02-24T15:01:31.792Z,9.55
2023-02-24T15:04:57.572Z,9.13
2023-02-24T15:07:54.109Z,9.05
2023-02-24T15:10:41.646Z,8.95
2023-02-24T15:13:44.178Z,8.38
2023-02-24T15:16:52.637Z,8.48
2023-02-24T15:19:48.344Z,9.35
2023-02-24T15:22:41.410Z,8.75
2023-02-24T15:26:05.546Z,9.30
2023-02-24T15:29:16.687Z,10.05
2023-02-24T15:32:07.508Z,9.95
2023-02-24T15:34:57.267Z,9.95
2023-02-24T15:37:54.211Z,9.15
2023-02-24T15:40:50.718Z,9.75
2023-02-24T15:43:48.895Z,9.30
2023-02-24T15:46:40.029Z,10.63
2023-02-24T15:49:30.593Z,10.90
2023-02-24T15:56:20.963Z,11.15
2023-02-24T15:59:17.778Z,11.30
2023-02-24T16:02:20.849Z,10.90
2023-02-24T16:08:34.808Z,11.15
2023-02-24T16:15:07.283Z,12.10
2023-02-24T16:17:55.169Z,14.05
2023-02-24T16:20:48.866Z,12.85
2023-02-24T16:23:40.664Z,13.82
2023-02-24T16:26:30.677Z,14.90
2023-02-24T16:29:20.507Z,15.32
2023-02-24T16:32:14.186Z,15.18
2023-02-24T16:35:22.111Z,16.65
2023-02-24T16:38:15.143Z,15.00
2023-02-24T16:41:06.296Z,17.45
2023-02-24T16:44:02.293Z,16.15
2023-02-24T16:46:53.418Z,17.75
2023-02-24T16:49:47.024Z,16.85
2023-02-24T16:52:34.615Z,18.45
2023-02-24T16:55:25.341Z,19.63
2023-02-24T16:58:14.113Z,18.05
2023-02-24T17:01:05.269Z,18.95
2023-02-24T17:03:56.908Z,18.25
2023-02-24T17:10:52.898Z,17.42
2023-02-24T17:13:40.376Z,18.42
2023-02-24T17:17:11.867Z,17.52
2023-02-24T17:22:54.531Z,17.90
2023-02-24T17:25:44.861Z,17.17
2023-02-24T17:28:34.590Z,17.15
2023-02-24T17:31:24.802Z,17.67
2023-02-24T17:34:12.134Z,17.40
2023-02-24T17:36:59.382Z,18.23
2023-02-24T17:39:49.133Z,18.70
2023-02-24T17:42:42.994Z,18.50
2023-02-24T17:45:32.101Z,16.48
2023-02-24T17:48:19.868Z,16.02
2023-02-24T17:51:07.379Z,16.88
2023-02-24T17:53:54.771Z,17.77
2023-02-24T17:56:42.216Z,17.40
2023-02-24T17:59:29.493Z,16.50
2023-02-24T18:06:21.069Z,14.38
2023-02-24T18:09:08.551Z,18.65
2023-02-24T18:11:56.091Z,18.05
2023-02-24T18:15:08.254Z,15.23
2023-02-24T18:17:59.490Z,14.52
2023-02-24T18:20:47.584Z,14.07
2023-02-24T18:23:37.276Z,12.77
2023-02-24T18:26:25.576Z,13.63
2023-02-24T18:29:13.406Z,12.20
2023-02-24T18:32:03.390Z,10.73
2023-02-24T18:34:50.764Z,9.90
2023-02-24T18:37:38.413Z,8.48
2023-02-24T18:40:27.027Z,8.00
2023-02-24T18:43:14.198Z,8.43
2023-02-24T18:46:06.736Z,9.35
2023-02-24T18:48:56.055Z,10.45
2023-02-24T18:51:44.775Z,9.43
2023-02-24T18:54:33.885Z,10.10
2023-02-24T18:57:21.449Z,11.07
2023-02-24T19:00:13.267Z,13.68
2023-02-24T19:03:03.957Z,13.98
2023-02-24T19:05:52.016Z,17.00
2023-02-24T19:08:44.231Z,8.23
2023-02-24T19:11:32.771Z,8.82
2023-02-24T19:14:23.147Z,8.32
2023-02-24T19:17:13.114Z,6.68
2023-02-24T19:20:06.894Z,4.65
2023-02-24T19:22:54.706Z,4.53
2023-02-24T19:25:45.465Z,3.22
2023-02-24T19:28:34.896Z,4.60
2023-02-24T19:31:27.683Z,4.53
2023-02-24T19:34:19.066Z,4.60
2023-02-24T19:37:08.924Z,5.13
2023-02-24T19:39:56.564Z,4.80
2023-02-24T19:42:47.410Z,5.93
2023-02-24T19:45:39.856Z,5.88
2023-02-24T19:48:27.231Z,6.03
2023-02-24T19:51:24.214Z,6.53
2023-02-24T19:54:13.932Z,6.07
2023-02-24T19:57:02.393Z,6.68
2023-02-24T19:59:51.944Z,7.28
2023-02-24T20:02:41.344Z,6.63
2023-02-24T20:05:31.234Z,7.72
2023-02-24T20:08:18.731Z,8.05
2023-02-24T20:11:06.467Z,8.02
2023-02-24T20:13:58.274Z,9.07
2023-02-24T20:16:48.498Z,8.83
2023-02-24T20:19:36.362Z,8.25
2023-02-24T20:22:23.973Z,8.52
2023-02-24T20:25:15.486Z,8.55
2023-02-24T20:28:03.017Z,9.05
2023-02-24T20:30:51.924Z,9.40
2023-02-24T20:33:41.809Z,10.00
2023-02-24T20:36:29.675Z,8.90
2023-02-24T20:39:17.767Z,9.52
2023-02-24T20:42:07.959Z,10.13
2023-02-24T20:44:56.673Z,10.88
2023-02-24T20:47:48.562Z,10.68
2023-02-24T20:50:36.145Z,11.30
2023-02-24T20:53:23.800Z,12.95
2023-02-24T20:56:19.572Z,13.27
2023-02-24T20:59:13.380Z,11.88
2023-02-24T21:02:00.978Z,12.27
2023-02-24T21:04:48.540Z,11.68
2023-02-24T21:07:39.483Z,11.43
2023-02-24T21:10:26.944Z,12.55
2023-02-24T21:13:14.509Z,12.45
2023-02-24T21:16:04.697Z,12.60
2023-02-24T21:18:53.316Z,12.73
2023-02-24T21:21:40.682Z,11.77
2023-02-24T21:24:30.802Z,13.07
2023-02-24T21:27:18.189Z,13.02
2023-02-24T21:30:09.370Z,13.38
2023-02-24T21:32:57.005Z,14.15
2023-02-24T21:35:45.547Z,15.68
2023-02-24T21:38:34.764Z,15.60
2023-02-24T21:41:22.418Z,16.25
2023-02-24T21:44:12.768Z,15.90
2023-02-24T21:47:02.554Z,16.25
2023-02-24T21:49:51.562Z,17.05
2023-02-24T21:52:40.419Z,18.67
2023-02-24T21:55:28.373Z,16.50
2023-02-24T21:58:15.892Z,17.17
2023-02-24T22:01:19.327Z,17.00
2023-02-24T22:04:10.147Z,17.67
2023-02-24T22:06:59.588Z,17.58
2023-02-24T22:09:49.422Z,18.58
2023-02-24T22:12:36.624Z,13.77
2023-02-24T22:15:24.035Z,12.88
2023-02-24T22:18:11.630Z,11.85
2023-02-24T22:20:58.858Z,11.48
2023-02-24T22:23:48.745Z,12.70
2023-02-24T22:26:38.366Z,12.85
2023-02-24T22:29:25.629Z,14.40
2023-02-24T22:32:12.959Z,14.10
2023-02-24T22:35:06.831Z,15.45
2023-02-24T22:37:54.028Z,14.88
2023-02-24T22:40:41.176Z,14.45
2023-02-24T22:43:29.419Z,14.73
2023-02-24T22:46:40.166Z,14.73
2023-02-24T22:49:27.837Z,14.77
2023-02-24T22:52:17.210Z,14.68
2023-02-24T22:55:04.563Z,15.30
2023-02-24T22:57:51.778Z,14.18
2023-02-24T23:00:46.080Z,13.98
2023-02-24T23:03:33.382Z,15.25
2023-02-24T23:06:26.080Z,13.35
2023-02-24T23:09:14.073Z,13.57
2023-02-24T23:12:02.138Z,13.15
2023-02-24T23:14:51.602Z,13.88
2023-02-24T23:17:38.966Z,14.55
2023-02-24T23:20:28.809Z,14.52
2023-02-24T23:23:18.208Z,14.90
2023-02-24T23:26:06.149Z,16.35
2023-02-24T23:28:57.343Z,17.92
2023-02-24T23:31:45.357Z,18.83
2023-02-24T23:34:34.842Z,18.77
2023-02-24T23:37:22.086Z,18.45
2023-02-24T23:40:26.844Z,18.70
2023-02-24T23:43:17.141Z,19.67
2023-02-24T23:46:10.275Z,16.75
2023-02-24T23:48:57.446Z,16.15
2023-02-24T23:51:48.966Z,15.57
2023-02-24T23:54:36.324Z,15.43
2023-02-24T23:57:23.995Z,15.45
